Webster City, Iowa
Current Conditions -  °F | °C
As of 7:15 PM on Thursday 18 Dec 2014 (Local Time) from KEBS Reporting Station
Overcast Overcast  
Wind Chill: 19°   Ceiling: 3800
Heat Index: 25°   Visibility: 10mi
Dew Point: 19°   Wind: 5mph
Humidity: 80%   Direction: 120°ESE
Pressure: 30.23"   Gusts: NA
Location:  42.47°N, 93.82°W
Report Text: KEBS 190115Z AUTO 12004KT 10SM SCT029 OVC038 M04/M07 A3023 RMK AO2
Loading
Personal Weather Stations






























Interactive Weather Map New forecast layout! Learn more

10-Day Weather Forecast

Advertisements
Track Severe Weather on mobile